Time;durP1;ratioP1;P1;durP2;ratioP2;P2;SDS_P1;SDS_P2;PMS_P1;PMS_P2;Temp;Humidity;BMP_temperature;BMP_pressure;BME280_temperature;BME280_humidity;BME280_pressure;Samples;Min_cycle;Max_cycle;Signal;HPM_P1;HPM_P2
2023/06/04 00:02:04;;;;;;;;;0.00;0.00;;;;;-146.67;25.20;74076.69;4999529;28;61817;-87
2023/06/04 00:04:30;;;;;;;;;0.00;0.00;;;;;-146.67;25.02;74080.69;5002054;28;62162;-87
2023/06/04 00:06:55;;;;;;;;;0.00;0.00;;;;;-146.67;25.09;74076.69;4990644;28;62225;-87
2023/06/04 00:09:21;;;;;;;;;0.00;0.00;;;;;-146.67;25.16;74080.69;4983041;28;63663;-87
2023/06/04 00:11:46;;;;;;;;;0.00;0.00;;;;;-146.67;25.13;74080.69;5002187;28;62450;-88
2023/06/04 00:14:13;;;;;;;;;0.00;0.00;;;;;-146.67;25.19;74082.69;4999672;28;62319;-86
2023/06/04 00:16:40;;;;;;;;;0.00;0.00;;;;;-146.67;25.24;74088.66;5001456;28;62669;-87
2023/06/04 00:19:06;;;;;;;;;0.00;0.00;;;;;-146.67;25.34;74086.66;4999837;28;62180;-86
2023/06/04 00:21:31;;;;;;;;;0.00;0.00;;;;;-146.67;25.14;74088.66;5000399;28;61727;-91
2023/06/04 00:23:56;;;;;;;;;0.00;0.00;;;;;-146.67;25.17;74098.66;5001594;28;61911;-87
2023/06/04 00:26:22;;;;;;;;;0.00;0.00;;;;;-146.67;25.04;74100.63;4984164;28;63298;-87
2023/06/04 00:28:47;;;;;;;;;0.00;0.00;;;;;-146.67;25.25;74116.59;5000131;28;62390;-87
2023/06/04 00:31:13;;;;;;;;;16.00;16.00;;;;;-146.67;25.20;74120.59;4999784;28;62272;-87
2023/06/04 00:33:41;;;;;;;;;0.00;0.00;;;;;-146.67;25.40;74122.59;5001261;28;62390;-87
2023/06/04 00:36:07;;;;;;;;;0.00;0.00;;;;;-146.67;25.44;74132.56;5002384;28;61884;-87
2023/06/04 00:38:32;;;;;;;;;0.00;0.00;;;;;-146.67;25.27;74124.59;4983001;28;63748;-85
2023/06/04 00:40:58;;;;;;;;;0.00;0.00;;;;;-146.67;25.48;74134.56;4983480;28;62342;-87
2023/06/04 00:43:26;;;;;;;;;0.00;0.00;;;;;-146.67;25.48;74152.53;5000097;28;61902;-87
2023/06/04 00:45:55;;;;;;;;;0.00;0.00;;;;;-146.67;25.72;74166.50;4996632;28;61996;-87
2023/06/04 00:48:21;;;;;;;;;0.00;0.00;;;;;-146.67;25.58;74170.50;4990246;28;64086;-87
2023/06/04 00:50:47;;;;;;;;;0.00;0.00;;;;;-146.67;25.95;74182.50;4980526;28;62030;-87
2023/06/04 00:53:12;;;;;;;;;0.00;0.00;;;;;-146.67;25.47;74176.50;4981645;28;61983;-87
2023/06/04 00:55:38;;;;;;;;;0.00;0.00;;;;;-146.67;25.39;74188.47;4996352;28;62377;-87
2023/06/04 00:58:06;;;;;;;;;0.00;0.00;;;;;-146.67;25.77;74186.47;4995801;28;63036;-87
2023/06/04 01:00:32;;;;;;;;;0.00;0.00;;;;;-146.67;25.77;74180.50;4981637;28;61953;-86
2023/06/04 01:03:05;;;;;;;;;0.00;0.00;;;;;-146.67;25.74;74190.47;4982875;28;62604;-88
2023/06/04 01:05:48;;;;;;;;;0.00;0.00;;;;;-146.67;25.56;74186.47;4999191;28;62033;-87
2023/06/04 01:08:15;;;;;;;;;0.00;0.00;;;;;-146.67;25.80;74194.47;4999963;28;63014;-87
2023/06/04 01:11:00;;;;;;;;;0.00;0.00;;;;;-146.67;25.54;74200.44;4982423;28;62135;-87
2023/06/04 01:13:27;;;;;;;;;0.00;0.00;;;;;-146.67;25.85;74202.44;4996688;28;61847;-87
2023/06/04 01:15:52;;;;;;;;;0.00;0.00;;;;;-146.67;25.92;74198.47;4984583;28;62291;-88
2023/06/04 01:18:28;;;;;;;;;0.00;0.00;;;;;-146.67;25.72;74194.47;4981189;28;63856;-87
2023/06/04 01:21:04;;;;;;;;;0.00;0.00;;;;;-146.67;25.82;74204.44;4982657;28;62015;-87
2023/06/04 01:23:35;;;;;;;;;0.00;0.00;;;;;-146.67;25.90;74200.44;4981573;28;62417;-85
2023/06/04 01:26:03;;;;;;;;;0.00;0.00;;;;;-146.67;25.61;74204.44;5001505;28;61765;-88
2023/06/04 01:28:30;;;;;;;;;0.00;0.00;;;;;-146.67;25.91;74204.44;4999133;28;61873;-88
2023/06/04 01:30:56;;;;;;;;;0.00;0.00;;;;;-146.67;25.59;74210.44;5000129;28;61833;-86
2023/06/04 01:33:22;;;;;;;;;0.00;0.00;;;;;-146.67;25.83;74208.44;4978609;28;61980;-87
2023/06/04 01:35:49;;;;;;;;;0.00;0.00;;;;;-146.67;25.91;74210.44;4994515;28;62094;-86
2023/06/04 01:38:14;;;;;;;;;0.00;0.00;;;;;-146.67;25.76;74214.44;4992230;28;61819;-87
2023/06/04 01:40:40;;;;;;;;;0.00;0.00;;;;;-146.67;25.97;74218.41;4997399;28;62009;-85
2023/06/04 01:43:06;;;;;;;;;0.00;0.00;;;;;-146.67;26.11;74220.41;4990956;28;61747;-87
2023/06/04 01:45:32;;;;;;;;;0.00;0.00;;;;;-146.67;25.59;74218.41;4993365;28;61692;-88
2023/06/04 01:47:57;;;;;;;;;0.00;0.00;;;;;-146.67;25.70;74228.41;4991220;28;62383;-87
2023/06/04 01:50:23;;;;;;;;;0.00;0.00;;;;;-146.67;25.88;74228.41;4991470;28;62452;-88
2023/06/04 01:52:49;;;;;;;;;0.00;0.00;;;;;-146.67;25.76;74232.41;4988861;28;62430;-87
2023/06/04 01:55:16;;;;;;;;;0.00;0.00;;;;;-146.67;25.76;74242.38;4995445;28;61823;-87
2023/06/04 01:57:44;;;;;;;;;0.00;0.00;;;;;-146.67;26.08;74246.38;4988427;28;63266;-87
2023/06/04 02:00:13;;;;;;;;;0.00;0.00;;;;;-146.67;25.99;74252.34;4999498;28;61725;-85
2023/06/04 02:02:41;;;;;;;;;0.00;0.00;;;;;-146.67;26.08;74250.38;4997802;28;62062;-87
2023/06/04 02:05:07;;;;;;;;;0.00;0.00;;;;;-146.67;25.94;74258.34;4988736;28;61890;-87
2023/06/04 02:07:38;;;;;;;;;0.00;0.00;;;;;-146.67;26.18;74264.34;4994511;28;61961;-88
2023/06/04 02:10:14;;;;;;;;;0.00;0.00;;;;;-146.67;26.15;74268.31;5000443;28;62375;-88
2023/06/04 02:12:52;;;;;;;;;0.00;0.00;;;;;-146.67;26.46;74278.31;4988374;28;61830;-86
2023/06/04 02:15:18;;;;;;;;;0.00;0.00;;;;;-146.67;26.21;74282.31;4995562;28;62333;-88
2023/06/04 02:17:45;;;;;;;;;0.00;0.00;;;;;-146.67;26.29;74296.28;4996400;28;61737;-87
2023/06/04 02:20:11;;;;;;;;;0.00;0.00;;;;;-146.67;26.24;74300.28;4994831;28;61895;-87
2023/06/04 02:22:37;;;;;;;;;0.00;0.00;;;;;-146.67;26.22;74310.25;4998567;28;62094;-87
2023/06/04 02:25:03;;;;;;;;;0.00;0.00;;;;;-146.67;26.32;74308.25;4991471;28;61893;-87
2023/06/04 02:27:28;;;;;;;;;0.00;0.00;;;;;-146.67;26.30;74306.25;4991845;28;62710;-86
2023/06/04 02:29:54;;;;;;;;;0.00;0.00;;;;;-146.67;26.05;74310.25;4995082;28;63143;-86
2023/06/04 02:32:19;;;;;;;;;0.00;0.00;;;;;-146.67;26.24;74310.25;4990513;28;62234;-86
2023/06/04 02:34:45;;;;;;;;;0.00;0.00;;;;;-146.67;26.19;74308.25;4980970;28;62875;-87
2023/06/04 02:37:10;;;;;;;;;0.00;0.00;;;;;-146.67;26.31;74306.25;4994008;28;63087;-88
2023/06/04 02:39:35;;;;;;;;;0.00;0.00;;;;;-146.67;26.52;74316.25;4970499;28;61849;-87
2023/06/04 02:42:01;;;;;;;;;0.00;0.00;;;;;-146.67;26.22;74320.22;4993346;28;62163;-88
2023/06/04 02:44:28;;;;;;;;;0.00;0.00;;;;;-146.67;26.17;74320.22;4980071;28;62122;-87
2023/06/04 02:46:53;;;;;;;;;0.00;0.00;;;;;-146.67;26.49;74324.22;4973403;28;64126;-88
2023/06/04 02:49:18;;;;;;;;;0.00;0.00;;;;;-146.67;26.33;74338.19;4995839;28;61785;-87
2023/06/04 02:51:44;;;;;;;;;0.00;0.00;;;;;-146.67;26.17;74342.19;4976225;28;61975;-88
2023/06/04 02:54:09;;;;;;;;;0.00;0.00;;;;;-146.67;26.17;74342.19;4996284;28;62167;-88
2023/06/04 02:56:36;;;;;;;;;0.00;0.00;;;;;-146.67;26.33;74342.19;4998343;28;62421;-88
2023/06/04 02:59:03;;;;;;;;;0.00;0.00;;;;;-146.67;26.40;74344.19;4998927;28;62170;-88
2023/06/04 03:01:28;;;;;;;;;0.00;0.00;;;;;-146.67;26.39;74338.19;4988074;28;61839;-88
2023/06/04 03:03:55;;;;;;;;;0.00;0.00;;;;;-146.67;26.52;74342.19;4991919;28;61902;-87
2023/06/04 03:06:21;;;;;;;;;0.00;0.00;;;;;-146.67;26.30;74348.19;4991298;28;62916;-86
2023/06/04 03:08:48;;;;;;;;;0.00;0.00;;;;;-146.67;26.38;74348.19;4990057;28;62244;-88
2023/06/04 03:11:14;;;;;;;;;0.00;0.00;;;;;-146.67;26.60;74354.16;4991460;28;61874;-84
2023/06/04 03:13:39;;;;;;;;;0.00;0.00;;;;;-146.67;26.70;74360.16;4997043;28;62323;-87
2023/06/04 03:16:11;;;;;;;;;0.00;0.00;;;;;-146.67;26.46;74364.16;4986451;28;62782;-88
2023/06/04 03:18:38;;;;;;;;;0.00;0.00;;;;;-146.67;26.70;74366.16;4996506;28;61833;-87
2023/06/04 03:21:04;;;;;;;;;0.00;0.00;;;;;-146.67;26.71;74364.16;4988412;28;62099;-87
2023/06/04 03:23:30;;;;;;;;;0.00;0.00;;;;;-146.67;26.75;74360.16;4993260;28;62311;-87
2023/06/04 03:25:55;;;;;;;;;0.00;0.00;;;;;-146.67;27.00;74372.13;4974009;28;63620;-86
2023/06/04 03:28:21;;;;;;;;;0.00;0.00;;;;;-146.67;26.91;74370.16;5003030;28;62006;-87
2023/06/04 03:30:46;;;;;;;;;0.00;0.00;;;;;-146.67;27.00;74376.13;4989112;28;62214;-87
2023/06/04 03:33:12;;;;;;;;;0.00;0.00;;;;;-146.67;26.83;74376.13;4996728;28;61907;-87
2023/06/04 03:35:37;;;;;;;;;0.00;0.00;;;;;-146.67;26.54;74378.13;4976508;28;63979;-87
2023/06/04 03:38:02;;;;;;;;;0.00;0.00;;;;;-146.67;26.95;74382.13;4998259;28;61799;-88
2023/06/04 03:40:28;;;;;;;;;0.00;0.00;;;;;-146.67;26.79;74382.13;4995347;28;61701;-88
2023/06/04 03:42:53;;;;;;;;;0.00;0.00;;;;;-146.67;26.75;74384.13;4996100;28;62298;-87
2023/06/04 03:45:19;;;;;;;;;0.00;0.00;;;;;-146.67;26.71;74382.13;4997679;28;61915;-88
2023/06/04 03:47:45;;;;;;;;;0.00;0.00;;;;;-146.67;26.48;74388.09;4994832;28;62825;-87
2023/06/04 03:50:10;;;;;;;;;0.00;0.00;;;;;-146.67;26.67;74388.09;5003008;28;61848;-87
2023/06/04 03:52:36;;;;;;;;;0.00;0.00;;;;;-146.67;26.84;74388.09;4996155;28;61889;-87
2023/06/04 03:55:01;;;;;;;;;0.00;0.00;;;;;-146.67;26.83;74390.09;4997038;28;62409;-86
2023/06/04 03:57:27;;;;;;;;;0.00;0.00;;;;;-146.67;26.48;74390.09;4979821;28;62867;-87
2023/06/04 03:59:52;;;;;;;;;0.00;0.00;;;;;-146.67;26.62;74392.09;4981168;28;61917;-87
2023/06/04 04:02:18;;;;;;;;;0.00;0.00;;;;;-146.67;26.71;74396.09;5000593;28;62870;-87
2023/06/04 04:04:44;;;;;;;;;0.00;0.00;;;;;-146.67;26.52;74394.09;4993270;28;64483;-87
2023/06/04 04:07:10;;;;;;;;;0.00;0.00;;;;;-146.67;26.36;74402.09;4985033;28;61761;-85
2023/06/04 04:09:36;;;;;;;;;0.00;0.00;;;;;-146.67;26.71;74408.06;4982920;28;61935;-87
2023/06/04 04:12:02;;;;;;;;;0.00;0.00;;;;;-146.67;26.77;74410.06;4978389;28;62057;-87
2023/06/04 04:14:28;;;;;;;;;0.00;0.00;;;;;-146.67;26.96;74414.06;4998140;28;62190;-87
2023/06/04 04:16:53;;;;;;;;;0.00;0.00;;;;;-146.67;26.99;74446.00;4997749;28;61983;-86
2023/06/04 04:19:18;;;;;;;;;0.00;0.00;;;;;-146.67;27.09;74440.00;5000995;28;61882;-87
2023/06/04 04:21:45;;;;;;;;;0.00;0.00;;;;;-146.67;27.02;74440.00;4999975;28;62131;-86
2023/06/04 04:24:10;;;;;;;;;0.00;0.00;;;;;-146.67;26.97;74440.00;4967147;28;64269;-87
2023/06/04 04:26:36;;;;;;;;;0.00;0.00;;;;;-146.67;26.88;74436.03;5000658;28;61820;-87
2023/06/04 04:29:01;;;;;;;;;0.00;0.00;;;;;-146.67;26.99;74436.03;4992318;28;62578;-87
2023/06/04 04:31:27;;;;;;;;;0.00;0.00;;;;;-146.67;26.92;74438.03;4980900;28;62178;-87
2023/06/04 04:33:55;;;;;;;;;0.00;0.00;;;;;-146.67;26.96;74438.03;4994932;28;63322;-86
2023/06/04 04:36:20;;;;;;;;;0.00;0.00;;;;;-146.67;26.79;74438.03;4967351;28;62425;-87
2023/06/04 04:38:45;;;;;;;;;0.00;0.00;;;;;-146.67;27.17;74452.00;4990330;28;62363;-88
2023/06/04 04:41:12;;;;;;;;;0.00;0.00;;;;;-146.67;26.98;74442.00;4995103;28;63460;-87
2023/06/04 04:43:39;;;;;;;;;0.00;0.00;;;;;-146.67;26.96;74465.97;4993290;28;63790;-87
2023/06/04 04:46:05;;;;;;;;;0.00;0.00;;;;;-146.67;27.02;74463.97;4996326;28;61981;-85
2023/06/04 04:48:31;;;;;;;;;0.00;0.00;;;;;-146.67;27.10;74467.97;4996885;28;62160;-87
2023/06/04 04:50:57;;;;;;;;;3.50;2.00;;;;;-146.67;27.11;74479.94;4988823;28;61939;-87
2023/06/04 04:53:22;;;;;;;;;0.00;0.00;;;;;-146.67;27.25;74475.94;4992485;28;62096;-87
2023/06/04 04:55:47;;;;;;;;;0.00;0.00;;;;;-146.67;26.99;74473.97;4995472;28;61974;-88
2023/06/04 04:58:13;;;;;;;;;0.00;0.00;;;;;-146.67;27.29;74461.97;4995228;28;62010;-87
2023/06/04 05:00:39;;;;;;;;;0.00;0.00;;;;;-146.67;27.25;74467.97;4994754;28;61967;-87
2023/06/04 05:03:04;;;;;;;;;0.00;0.00;;;;;-146.67;26.93;74473.97;4987445;28;63131;-87
2023/06/04 05:05:30;;;;;;;;;0.00;0.00;;;;;-146.67;26.93;74463.97;4972730;28;61796;-88
2023/06/04 05:07:55;;;;;;;;;0.00;0.00;;;;;-146.67;27.06;74457.97;4991308;28;61757;-88
2023/06/04 05:10:21;;;;;;;;;0.00;0.00;;;;;-146.67;26.97;74456.00;4994868;28;63362;-87
2023/06/04 05:12:54;;;;;;;;;0.00;0.00;;;;;-146.67;27.02;74465.97;4986377;28;64672;-86
2023/06/04 05:15:20;;;;;;;;;2.00;2.00;;;;;-146.67;26.74;74465.97;4998950;28;62001;-87
2023/06/04 05:17:46;;;;;;;;;0.00;0.00;;;;;-146.67;26.87;74457.97;4979709;28;61981;-86
2023/06/04 05:20:12;;;;;;;;;0.00;0.00;;;;;-146.67;26.75;74444.00;4995418;28;61916;-87
2023/06/04 05:22:39;;;;;;;;;0.00;0.00;;;;;-146.67;26.78;74424.03;4995156;28;64781;-88
2023/06/04 05:25:06;;;;;;;;;0.00;0.00;;;;;-146.67;26.95;74402.09;4998896;28;61756;-87
2023/06/04 05:27:31;;;;;;;;;0.00;0.00;;;;;-146.67;26.53;74400.09;4987934;28;62199;-85
2023/06/04 05:30:01;;;;;;;;;0.00;0.00;;;;;-146.67;26.61;74362.16;5000282;28;61988;-86
2023/06/04 05:32:28;;;;;;;;;0.00;0.00;;;;;-146.67;26.28;74324.22;4998204;28;63161;-88
2023/06/04 05:34:57;;;;;;;;;0.00;0.00;;;;;-146.67;25.82;74286.28;4987131;28;62100;-88
2023/06/04 05:37:29;;;;;;;;;1.25;1.25;;;;;-146.67;25.50;74214.44;4993328;28;63649;-88
2023/06/04 05:39:57;;;;;;;;;0.00;0.00;;;;;-146.67;24.82;74108.63;4998226;28;62215;-88
2023/06/04 05:42:26;;;;;;;;;0.00;0.00;;;;;-146.67;24.42;74050.72;4978316;28;65125;-88
2023/06/04 05:44:52;;;;;;;;;0.00;0.00;;;;;-146.67;24.42;73978.88;4993376;28;61864;-88
2023/06/04 05:47:19;;;;;;;;;0.00;0.00;;;;;-146.67;24.04;73924.97;4995874;28;61784;-86
2023/06/04 05:49:45;;;;;;;;;0.00;0.00;;;;;-146.67;23.72;73918.97;4981836;28;62009;-88
2023/06/04 05:52:10;;;;;;;;;0.00;0.00;;;;;-146.67;23.74;73918.97;4997386;28;62848;-88
2023/06/04 05:54:37;;;;;;;;;0.00;0.00;;;;;-146.67;23.44;73873.06;4997357;28;61828;-87
2023/06/04 05:57:04;;;;;;;;;0.00;0.00;;;;;-146.67;23.71;73893.03;4981571;28;61936;-87
2023/06/04 05:59:29;;;;;;;;;0.00;0.00;;;;;-146.67;23.86;73903.00;4996874;28;62239;-87
2023/06/04 06:01:55;;;;;;;;;0.00;0.00;;;;;-146.67;23.68;73915.00;4992458;28;62887;-86
2023/06/04 06:04:21;;;;;;;;;0.00;0.00;;;;;-146.67;23.84;73922.97;4996940;28;62029;-86
2023/06/04 06:06:48;;;;;;;;;0.00;0.00;;;;;-146.67;24.05;73936.94;4993829;28;62856;-87
2023/06/04 06:09:15;;;;;;;;;0.00;0.00;;;;;-146.67;23.95;73936.94;4980887;28;62106;-87
2023/06/04 06:11:41;;;;;;;;;0.00;0.00;;;;;-146.67;23.88;73940.94;4995528;28;62780;-86
2023/06/04 06:14:07;;;;;;;;;0.00;0.00;;;;;-146.67;23.79;73948.94;4980381;28;62009;-87
2023/06/04 06:16:32;;;;;;;;;0.00;0.00;;;;;-146.67;23.98;73952.91;4979388;28;62422;-87
2023/06/04 06:18:58;;;;;;;;;0.00;0.00;;;;;-146.67;23.98;73938.94;4981036;28;61918;-87
2023/06/04 06:21:24;;;;;;;;;0.00;0.00;;;;;-146.67;23.78;73895.03;4995928;28;63904;-86
2023/06/04 06:23:50;;;;;;;;;0.00;0.00;;;;;-146.67;23.55;73811.19;4980654;28;61825;-87
2023/06/04 06:26:15;;;;;;;;;0.00;0.00;;;;;-146.67;22.96;73705.41;4980565;28;62221;-87
2023/06/04 06:28:42;;;;;;;;;0.00;0.00;;;;;-146.67;23.11;73707.41;4998777;28;62197;-88
2023/06/04 06:31:08;;;;;;;;;0.00;0.00;;;;;-146.67;22.71;73679.44;4998572;28;61943;-88
2023/06/04 06:33:33;;;;;;;;;0.00;0.00;;;;;-146.67;22.80;73693.44;4998937;28;61930;-85
2023/06/04 06:36:02;;;;;;;;;0.00;0.00;;;;;-146.67;23.00;73761.28;4989588;28;62731;-88
2023/06/04 06:38:27;;;;;;;;;0.00;0.00;;;;;-146.67;23.37;73837.16;4995328;28;62781;-89
2023/06/04 06:40:53;;;;;;;;;0.00;0.00;;;;;-146.67;23.65;73887.03;4979605;28;63523;-90
2023/06/04 06:43:18;;;;;;;;;0.00;0.00;;;;;-146.67;23.70;73922.97;4994709;28;62801;-88
2023/06/04 06:45:44;;;;;;;;;0.00;0.00;;;;;-146.67;23.64;73944.94;5001658;28;61813;-91
2023/06/04 06:48:09;;;;;;;;;0.00;0.00;;;;;-146.67;23.92;73978.88;5003730;28;61717;-89
2023/06/04 06:50:38;;;;;;;;;0.00;0.00;;;;;-146.67;24.39;74006.81;4999172;28;65159;-77
2023/06/04 06:53:03;;;;;;;;;0.00;0.00;;;;;-146.67;24.37;74010.81;5003515;28;61825;-82
2023/06/04 06:55:28;;;;;;;;;0.00;0.00;;;;;-146.67;24.50;74020.78;4991258;28;62358;-81
2023/06/04 06:57:54;;;;;;;;;0.00;0.00;;;;;-146.67;24.31;74032.75;5004885;28;61749;-84
2023/06/04 07:00:19;;;;;;;;;0.00;0.00;;;;;-146.67;24.12;74050.72;4985082;28;65106;-78
2023/06/04 07:02:49;;;;;;;;;0.00;0.00;;;;;-146.67;24.59;74062.72;5000947;28;62000;-80
2023/06/04 07:05:16;;;;;;;;;0.00;0.00;;;;;-146.67;24.42;74064.72;4982531;28;62016;-80
2023/06/04 07:07:43;;;;;;;;;0.00;0.00;;;;;-146.67;24.71;74064.72;5001059;28;62000;-80
2023/06/04 07:10:09;;;;;;;;;0.00;0.00;;;;;-146.67;24.57;74074.69;4998461;28;64968;-79
2023/06/04 07:12:35;;;;;;;;;0.00;0.00;;;;;-146.67;24.77;74076.69;4999908;28;63506;-85
2023/06/04 07:15:00;;;;;;;;;0.00;0.00;;;;;-146.67;24.63;74080.69;4989141;28;62351;-85
2023/06/04 07:17:25;;;;;;;;;0.00;0.00;;;;;-146.67;24.56;74080.69;4986003;28;61812;-82
2023/06/04 07:19:51;;;;;;;;;0.00;0.00;;;;;-146.67;24.70;74082.69;4998656;28;62579;-83
2023/06/04 07:22:16;;;;;;;;;0.00;0.00;;;;;-146.67;24.61;74078.69;4999505;28;62422;-84
2023/06/04 07:24:42;;;;;;;;;0.00;0.00;;;;;-146.67;24.52;74082.69;5000470;28;62125;-82
2023/06/04 07:27:14;;;;;;;;;0.00;0.00;;;;;-146.67;24.49;74090.66;4990481;28;62120;-84
2023/06/04 07:29:42;;;;;;;;;0.00;0.00;;;;;-146.67;24.87;74094.66;4999919;28;64095;-83
2023/06/04 07:32:08;;;;;;;;;0.00;0.00;;;;;-146.67;24.68;74110.63;5001946;28;61952;-82
2023/06/04 07:34:33;;;;;;;;;0.00;0.00;;;;;-146.67;25.18;74116.59;4984582;28;62021;-82
2023/06/04 07:36:59;;;;;;;;;0.00;0.00;;;;;-146.67;24.90;74114.63;4996012;28;62203;-84
2023/06/04 07:39:24;;;;;;;;;0.00;0.00;;;;;-146.67;25.14;74114.63;4998127;28;61814;-83
2023/06/04 07:41:50;;;;;;;;;0.00;0.00;;;;;-146.67;25.21;74114.63;5000368;28;62565;-83
2023/06/04 07:44:15;;;;;;;;;0.00;0.00;;;;;-146.67;25.07;74112.63;5001591;28;62818;-84
2023/06/04 07:46:41;;;;;;;;;0.00;0.00;;;;;-146.67;25.39;74106.63;4981852;28;61866;-82
2023/06/04 07:49:06;;;;;;;;;0.00;0.00;;;;;-146.67;25.14;74098.66;4978125;28;64721;-82
2023/06/04 07:51:32;;;;;;;;;0.00;0.00;;;;;-146.67;25.06;74094.66;5000288;28;62179;-81
2023/06/04 07:53:57;;;;;;;;;0.00;0.00;;;;;-146.67;24.80;74096.66;4981161;28;62542;-80
2023/06/04 07:56:27;;;;;;;;;0.00;0.00;;;;;-146.67;25.27;74106.63;4998582;28;61935;-86
2023/06/04 07:58:52;;;;;;;;;0.00;0.00;;;;;-146.67;24.82;74102.63;4975939;28;63868;-85
2023/06/04 08:01:18;;;;;;;;;0.00;0.00;;;;;-146.67;25.25;74102.63;4994039;28;61864;-84
2023/06/04 08:03:43;;;;;;;;;0.00;0.00;;;;;-146.67;25.46;74102.63;4984366;28;62008;-82
2023/06/04 08:06:10;;;;;;;;;0.00;0.00;;;;;-146.67;25.12;74100.63;4999879;28;61788;-83
2023/06/04 08:08:36;;;;;;;;;0.00;0.00;;;;;-146.67;24.99;74094.66;4981829;28;64765;-88
2023/06/04 08:11:02;;;;;;;;;0.00;0.00;;;;;-146.67;24.96;74098.66;4998256;28;62016;-86
2023/06/04 08:13:27;;;;;;;;;0.00;0.00;;;;;-146.67;25.08;74102.63;4998796;28;61835;-86
2023/06/04 08:15:54;;;;;;;;;0.00;0.00;;;;;-146.67;25.00;74102.63;5003417;28;61849;-86
2023/06/04 08:18:21;;;;;;;;;0.00;0.00;;;;;-146.67;25.31;74102.63;4983562;28;64819;-87
2023/06/04 08:20:46;;;;;;;;;0.00;0.00;;;;;-146.67;25.24;74090.66;5000732;28;62317;-86
2023/06/04 08:23:12;;;;;;;;;0.00;0.00;;;;;-146.67;24.96;74084.66;4984637;28;62059;-84
2023/06/04 08:25:37;;;;;;;;;0.00;0.00;;;;;-146.67;25.25;74074.69;5000484;28;62129;-84
2023/06/04 08:28:03;;;;;;;;;0.00;0.00;;;;;-146.67;25.36;74066.69;4984196;28;65035;-86
2023/06/04 08:30:29;;;;;;;;;0.00;0.00;;;;;-146.67;25.31;74078.69;5001129;28;61972;-85
2023/06/04 08:32:55;;;;;;;;;0.00;0.00;;;;;-146.67;25.06;74076.69;4983903;28;62048;-85
2023/06/04 08:35:20;;;;;;;;;0.00;0.00;;;;;-146.67;25.37;74072.69;5002976;28;62058;-85
2023/06/04 08:37:46;;;;;;;;;0.00;0.00;;;;;-146.67;25.36;74068.69;5000909;28;63784;-85
2023/06/04 08:40:12;;;;;;;;;0.00;0.00;;;;;-146.67;25.38;74064.72;5001430;28;61970;-85
2023/06/04 08:42:41;;;;;;;;;0.00;0.00;;;;;-146.67;25.31;74058.72;5002414;28;62044;-82
2023/06/04 08:45:12;;;;;;;;;0.00;0.00;;;;;-146.67;25.52;74046.75;4985730;28;62004;-82
2023/06/04 08:47:43;;;;;;;;;0.00;0.00;;;;;-146.67;25.05;74044.75;5001407;28;64996;-81
2023/06/04 08:50:10;;;;;;;;;0.00;0.00;;;;;-146.67;24.82;74042.75;5003680;28;61881;-82
2023/06/04 08:52:38;;;;;;;;;0.00;0.00;;;;;-146.67;25.41;74038.75;5001684;28;61800;-82
2023/06/04 08:55:05;;;;;;;;;0.00;0.00;;;;;-146.67;25.39;74028.78;5003432;28;62002;-82
2023/06/04 08:57:31;;;;;;;;;0.00;0.00;;;;;-146.67;25.39;74024.78;5003094;28;62774;-80
2023/06/04 08:59:56;;;;;;;;;0.00;0.00;;;;;-146.67;24.78;74022.78;5002919;28;62150;-82
2023/06/04 09:02:23;;;;;;;;;0.00;0.00;;;;;-146.67;24.79;74010.81;5003535;28;62408;-83
2023/06/04 09:04:49;;;;;;;;;0.00;0.00;;;;;-146.67;24.79;74008.81;5000488;28;61951;-85
2023/06/04 09:07:16;;;;;;;;;0.00;0.00;;;;;-146.67;24.40;74000.81;4994725;28;63661;-83
2023/06/04 09:09:45;;;;;;;;;0.00;0.00;;;;;-146.67;24.46;73986.84;4988697;28;61828;-82
2023/06/04 09:12:15;;;;;;;;;0.00;0.00;;;;;-146.67;24.57;73982.88;4996445;28;62021;-80
2023/06/04 09:14:41;;;;;;;;;0.00;0.00;;;;;-146.67;24.37;73974.88;5000849;28;61912;-81
2023/06/04 09:17:09;;;;;;;;;0.00;0.00;;;;;-146.67;23.93;73968.88;4999213;28;64566;-84
2023/06/04 09:19:34;;;;;;;;;0.00;0.00;;;;;-146.67;24.33;73962.91;4999999;28;62351;-84
2023/06/04 09:22:04;;;;;;;;;0.00;0.00;;;;;-146.67;23.97;73950.94;4999729;28;62160;-86
2023/06/04 09:24:44;;;;;;;;;0.00;0.00;;;;;-146.67;24.02;73940.94;4991474;28;61852;-83
2023/06/04 09:27:13;;;;;;;;;0.00;0.00;;;;;-146.67;23.94;73926.97;4997964;28;62041;-85
2023/06/04 09:29:40;;;;;;;;;0.00;0.00;;;;;-146.67;23.91;73930.97;4997833;28;62499;-84
2023/06/04 09:32:06;;;;;;;;;0.00;0.00;;;;;-146.67;24.11;73922.97;5000836;28;62050;-85
2023/06/04 09:34:31;;;;;;;;;0.00;0.00;;;;;-146.67;23.89;73909.00;5001946;28;62142;-81
2023/06/04 09:36:58;;;;;;;;;0.00;0.00;;;;;-146.67;23.28;73903.00;4999343;28;63297;-82
2023/06/04 09:39:24;;;;;;;;;0.00;0.00;;;;;-146.67;22.83;73901.03;5000720;28;61884;-87
2023/06/04 09:42:03;;;;;;;;;0.00;0.00;;;;;-146.67;23.17;73887.03;5000297;28;61986;-82
2023/06/04 09:44:29;;;;;;;;;1.00;1.00;;;;;-146.67;23.25;73877.06;4983188;28;61876;-86
2023/06/04 09:46:56;;;;;;;;;0.00;0.00;;;;;-146.67;23.12;73869.09;4996467;28;61826;-82
2023/06/04 09:49:22;;;;;;;;;0.00;0.00;;;;;-146.67;22.91;73871.06;4994943;28;62193;-84
2023/06/04 09:51:48;;;;;;;;;0.00;0.00;;;;;-146.67;23.17;73851.13;4999845;28;61999;-86
2023/06/04 09:54:14;;;;;;;;;0.00;0.00;;;;;-146.67;23.08;73839.13;4998789;28;63072;-86
2023/06/04 09:56:43;;;;;;;;;0.00;0.00;;;;;-146.67;22.94;73829.16;4999772;28;62061;-86
2023/06/04 09:59:09;;;;;;;;;0.00;0.00;;;;;-146.67;22.85;73817.19;5000850;28;61912;-83
2023/06/04 10:01:41;;;;;;;;;0.00;0.00;;;;;-146.67;22.82;73813.19;4998999;28;61917;-79
2023/06/04 10:04:08;;;;;;;;;0.00;0.00;;;;;-146.67;22.52;73801.22;5000375;28;62155;-82
2023/06/04 10:06:35;;;;;;;;;0.00;0.00;;;;;-146.67;22.48;73793.22;5000041;28;62234;-82
2023/06/04 10:09:07;;;;;;;;;0.00;0.00;;;;;-146.67;22.90;73791.22;5000931;28;61965;-83
2023/06/04 10:11:44;;;;;;;;;0.00;0.00;;;;;-146.67;22.52;73771.28;5000504;28;63254;-82
2023/06/04 10:14:22;;;;;;;;;0.00;0.00;;;;;-146.67;22.56;73759.28;4980966;28;61867;-84
2023/06/04 10:16:50;;;;;;;;;0.00;0.00;;;;;-146.67;22.36;73745.31;4998312;28;61776;-84
2023/06/04 10:19:17;;;;;;;;;0.00;0.00;;;;;-146.67;21.99;73741.34;4977394;28;61890;-88
2023/06/04 10:21:43;;;;;;;;;0.00;0.00;;;;;-146.67;21.84;73743.31;4992145;28;61944;-86
2023/06/04 10:24:09;;;;;;;;;0.00;0.00;;;;;-146.67;22.16;73725.38;4984033;28;62077;-86
2023/06/04 10:26:35;;;;;;;;;0.00;0.00;;;;;-146.67;22.02;73715.38;4982447;28;64863;-86
2023/06/04 10:29:02;;;;;;;;;0.00;0.00;;;;;-146.67;21.39;73699.41;4983626;28;61905;-88
2023/06/04 10:31:28;;;;;;;;;0.00;0.00;;;;;-146.67;21.42;73681.44;5001526;28;61792;-87
2023/06/04 10:33:55;;;;;;;;;0.00;0.00;;;;;-146.67;21.56;73689.44;5001482;28;62084;-87
2023/06/04 10:36:22;;;;;;;;;0.00;0.00;;;;;-146.67;21.42;73669.47;4982976;28;63980;-87
2023/06/04 10:38:49;;;;;;;;;0.00;0.00;;;;;-146.67;21.84;73661.50;5000400;28;61877;-85
2023/06/04 10:41:17;;;;;;;;;0.00;0.00;;;;;-146.67;21.63;73667.47;5000696;28;61748;-91
2023/06/04 10:43:49;;;;;;;;;0.00;0.00;;;;;-146.67;21.40;73651.50;4999620;28;61962;-86
2023/06/04 10:46:16;;;;;;;;;0.00;0.00;;;;;-146.67;21.47;73633.53;4999460;28;61986;-87
2023/06/04 10:48:49;;;;;;;;;0.00;0.00;;;;;-146.67;21.43;73633.53;4998242;28;62054;-86
2023/06/04 10:51:16;;;;;;;;;0.00;0.00;;;;;-146.67;21.22;73617.56;4999023;28;61710;-85
2023/06/04 10:53:42;;;;;;;;;0.00;0.00;;;;;-146.67;21.62;73619.56;5000355;28;62144;-84
2023/06/04 10:56:07;;;;;;;;;0.00;0.00;;;;;-146.67;21.53;73607.59;5000379;28;63465;-84
2023/06/04 10:58:33;;;;;;;;;0.00;0.00;;;;;-146.67;21.70;73595.63;4980759;28;62405;-83
2023/06/04 11:00:59;;;;;;;;;0.00;0.00;;;;;-146.67;21.88;73573.66;4999322;28;61790;-89
2023/06/04 11:03:35;;;;;;;;;0.00;0.00;;;;;-146.67;21.47;73573.66;4999962;28;62106;-83
2023/06/04 11:06:01;;;;;;;;;0.00;0.00;;;;;-146.67;21.24;73555.69;4963417;28;64660;-84
2023/06/04 11:08:29;;;;;;;;;0.00;0.00;;;;;-146.67;21.19;73545.72;4989499;28;62133;-83
2023/06/04 11:10:54;;;;;;;;;0.00;0.00;;;;;-146.67;20.98;73537.75;4982831;28;61815;-83
2023/06/04 11:13:26;;;;;;;;;0.00;0.00;;;;;-146.67;21.21;73529.75;5000203;28;62021;-83
2023/06/04 11:15:51;;;;;;;;;0.00;0.00;;;;;-146.67;21.36;73511.78;4982868;28;63932;-84